sensor_id;sensor_type;location;lat;lon;timestamp;P1;durP1;ratioP1;P2;durP2;ratioP2
19998;SDS011;10160;50.926;4.374;2022-11-20T00:00:53;43.17;;;22.27;;
19998;SDS011;10160;50.926;4.374;2022-11-20T00:03:19;42.27;;;22.60;;
19998;SDS011;10160;50.926;4.374;2022-11-20T00:05:45;41.77;;;22.03;;
19998;SDS011;10160;50.926;4.374;2022-11-20T00:08:11;40.43;;;22.37;;
19998;SDS011;10160;50.926;4.374;2022-11-20T00:10:37;40.13;;;20.93;;
19998;SDS011;10160;50.926;4.374;2022-11-20T00:13:06;39.20;;;21.20;;
19998;SDS011;10160;50.926;4.374;2022-11-20T00:15:32;43.30;;;22.63;;
19998;SDS011;10160;50.926;4.374;2022-11-20T00:17:58;44.00;;;22.27;;
19998;SDS011;10160;50.926;4.374;2022-11-20T00:20:24;44.87;;;23.13;;
19998;SDS011;10160;50.926;4.374;2022-11-20T00:22:50;44.87;;;23.67;;
19998;SDS011;10160;50.926;4.374;2022-11-20T00:25:16;49.77;;;23.93;;
19998;SDS011;10160;50.926;4.374;2022-11-20T00:27:42;50.07;;;24.07;;
19998;SDS011;10160;50.926;4.374;2022-11-20T00:30:08;45.50;;;23.17;;
19998;SDS011;10160;50.926;4.374;2022-11-20T00:32:34;45.30;;;24.07;;
19998;SDS011;10160;50.926;4.374;2022-11-20T00:34:59;47.80;;;25.37;;
19998;SDS011;10160;50.926;4.374;2022-11-20T00:37:25;45.87;;;23.53;;
19998;SDS011;10160;50.926;4.374;2022-11-20T00:39:51;47.53;;;24.40;;
19998;SDS011;10160;50.926;4.374;2022-11-20T00:42:17;51.57;;;25.67;;
19998;SDS011;10160;50.926;4.374;2022-11-20T00:44:42;46.20;;;24.13;;
19998;SDS011;10160;50.926;4.374;2022-11-20T00:47:08;48.43;;;25.70;;
19998;SDS011;10160;50.926;4.374;2022-11-20T00:49:33;53.23;;;26.67;;
19998;SDS011;10160;50.926;4.374;2022-11-20T00:51:59;54.00;;;26.83;;
19998;SDS011;10160;50.926;4.374;2022-11-20T00:54:25;51.63;;;27.33;;
19998;SDS011;10160;50.926;4.374;2022-11-20T00:56:52;52.93;;;26.40;;
19998;SDS011;10160;50.926;4.374;2022-11-20T00:59:18;56.27;;;26.43;;
19998;SDS011;10160;50.926;4.374;2022-11-20T01:01:44;55.73;;;25.07;;
19998;SDS011;10160;50.926;4.374;2022-11-20T01:04:10;57.27;;;27.17;;
19998;SDS011;10160;50.926;4.374;2022-11-20T01:06:36;51.63;;;25.93;;
19998;SDS011;10160;50.926;4.374;2022-11-20T01:09:09;52.10;;;26.30;;
19998;SDS011;10160;50.926;4.374;2022-11-20T01:11:37;51.83;;;25.67;;
19998;SDS011;10160;50.926;4.374;2022-11-20T01:14:06;59.37;;;27.57;;
19998;SDS011;10160;50.926;4.374;2022-11-20T01:16:35;51.83;;;24.83;;
19998;SDS011;10160;50.926;4.374;2022-11-20T01:19:04;53.33;;;26.50;;
19998;SDS011;10160;50.926;4.374;2022-11-20T01:21:35;57.07;;;25.87;;
19998;SDS011;10160;50.926;4.374;2022-11-20T01:24:03;48.93;;;25.00;;
19998;SDS011;10160;50.926;4.374;2022-11-20T01:26:31;51.30;;;24.97;;
19998;SDS011;10160;50.926;4.374;2022-11-20T01:28:58;57.47;;;26.30;;
19998;SDS011;10160;50.926;4.374;2022-11-20T01:31:31;51.07;;;25.93;;
19998;SDS011;10160;50.926;4.374;2022-11-20T01:33:59;56.07;;;26.80;;
19998;SDS011;10160;50.926;4.374;2022-11-20T01:36:28;56.60;;;27.00;;
19998;SDS011;10160;50.926;4.374;2022-11-20T01:38:55;55.27;;;26.87;;
19998;SDS011;10160;50.926;4.374;2022-11-20T01:41:23;68.47;;;27.93;;
19998;SDS011;10160;50.926;4.374;2022-11-20T01:44:09;55.53;;;27.93;;
19998;SDS011;10160;50.926;4.374;2022-11-20T01:46:40;57.70;;;27.93;;
19998;SDS011;10160;50.926;4.374;2022-11-20T01:49:28;59.93;;;27.50;;
19998;SDS011;10160;50.926;4.374;2022-11-20T01:52:05;56.37;;;28.77;;
19998;SDS011;10160;50.926;4.374;2022-11-20T01:54:42;60.33;;;27.77;;
19998;SDS011;10160;50.926;4.374;2022-11-20T01:57:13;66.73;;;28.93;;
19998;SDS011;10160;50.926;4.374;2022-11-20T01:59:41;61.63;;;28.53;;
19998;SDS011;10160;50.926;4.374;2022-11-20T02:02:14;60.43;;;28.37;;
19998;SDS011;10160;50.926;4.374;2022-11-20T02:04:39;61.27;;;28.37;;
19998;SDS011;10160;50.926;4.374;2022-11-20T02:07:05;63.37;;;29.33;;
19998;SDS011;10160;50.926;4.374;2022-11-20T02:09:32;65.37;;;29.87;;
19998;SDS011;10160;50.926;4.374;2022-11-20T02:11:58;69.03;;;30.93;;
19998;SDS011;10160;50.926;4.374;2022-11-20T02:14:24;60.77;;;31.10;;
19998;SDS011;10160;50.926;4.374;2022-11-20T02:16:51;64.23;;;30.67;;
19998;SDS011;10160;50.926;4.374;2022-11-20T02:19:23;61.70;;;27.67;;
19998;SDS011;10160;50.926;4.374;2022-11-20T02:24:21;64.37;;;27.77;;
19998;SDS011;10160;50.926;4.374;2022-11-20T02:29:28;65.60;;;27.20;;
19998;SDS011;10160;50.926;4.374;2022-11-20T02:32:00;57.40;;;27.30;;
19998;SDS011;10160;50.926;4.374;2022-11-20T02:34:29;61.27;;;26.53;;
19998;SDS011;10160;50.926;4.374;2022-11-20T02:36:56;51.53;;;26.57;;
19998;SDS011;10160;50.926;4.374;2022-11-20T02:39:23;54.60;;;26.60;;
19998;SDS011;10160;50.926;4.374;2022-11-20T02:41:50;56.63;;;28.13;;
19998;SDS011;10160;50.926;4.374;2022-11-20T02:44:18;53.80;;;28.03;;
19998;SDS011;10160;50.926;4.374;2022-11-20T02:46:44;58.93;;;27.30;;
19998;SDS011;10160;50.926;4.374;2022-11-20T02:49:09;55.20;;;28.17;;
19998;SDS011;10160;50.926;4.374;2022-11-20T02:51:35;65.97;;;30.07;;
19998;SDS011;10160;50.926;4.374;2022-11-20T02:54:01;64.87;;;29.43;;
19998;SDS011;10160;50.926;4.374;2022-11-20T02:56:26;66.20;;;29.57;;
19998;SDS011;10160;50.926;4.374;2022-11-20T02:58:52;59.67;;;29.27;;
19998;SDS011;10160;50.926;4.374;2022-11-20T03:01:18;62.57;;;28.77;;
19998;SDS011;10160;50.926;4.374;2022-11-20T03:03:44;66.10;;;29.70;;
19998;SDS011;10160;50.926;4.374;2022-11-20T03:06:09;61.17;;;29.17;;
19998;SDS011;10160;50.926;4.374;2022-11-20T03:08:35;56.47;;;27.63;;
19998;SDS011;10160;50.926;4.374;2022-11-20T03:11:05;61.00;;;28.33;;
19998;SDS011;10160;50.926;4.374;2022-11-20T03:13:31;54.93;;;26.90;;
19998;SDS011;10160;50.926;4.374;2022-11-20T03:15:57;61.00;;;28.93;;
19998;SDS011;10160;50.926;4.374;2022-11-20T03:18:23;59.70;;;28.27;;
19998;SDS011;10160;50.926;4.374;2022-11-20T03:20:48;57.03;;;26.93;;
19998;SDS011;10160;50.926;4.374;2022-11-20T03:23:14;58.83;;;27.80;;
19998;SDS011;10160;50.926;4.374;2022-11-20T03:25:39;64.93;;;29.67;;
19998;SDS011;10160;50.926;4.374;2022-11-20T03:28:05;57.10;;;27.83;;
19998;SDS011;10160;50.926;4.374;2022-11-20T03:30:31;60.37;;;26.97;;
19998;SDS011;10160;50.926;4.374;2022-11-20T03:32:56;54.77;;;26.13;;
19998;SDS011;10160;50.926;4.374;2022-11-20T03:35:22;60.40;;;27.97;;
19998;SDS011;10160;50.926;4.374;2022-11-20T03:37:48;51.23;;;25.83;;
19998;SDS011;10160;50.926;4.374;2022-11-20T03:40:13;50.90;;;26.03;;
19998;SDS011;10160;50.926;4.374;2022-11-20T03:42:39;56.47;;;26.03;;
19998;SDS011;10160;50.926;4.374;2022-11-20T03:45:11;53.90;;;24.73;;
19998;SDS011;10160;50.926;4.374;2022-11-20T03:47:43;48.77;;;24.37;;
19998;SDS011;10160;50.926;4.374;2022-11-20T03:50:09;51.77;;;24.77;;
19998;SDS011;10160;50.926;4.374;2022-11-20T03:52:37;53.97;;;24.90;;
19998;SDS011;10160;50.926;4.374;2022-11-20T03:55:03;47.30;;;23.43;;
19998;SDS011;10160;50.926;4.374;2022-11-20T03:57:29;54.03;;;24.23;;
19998;SDS011;10160;50.926;4.374;2022-11-20T03:59:55;50.70;;;24.60;;
19998;SDS011;10160;50.926;4.374;2022-11-20T04:02:21;47.53;;;23.87;;
19998;SDS011;10160;50.926;4.374;2022-11-20T04:04:46;49.20;;;23.00;;
19998;SDS011;10160;50.926;4.374;2022-11-20T04:07:12;50.10;;;23.80;;
19998;SDS011;10160;50.926;4.374;2022-11-20T04:09:37;50.57;;;24.07;;
19998;SDS011;10160;50.926;4.374;2022-11-20T04:12:03;49.87;;;23.73;;
19998;SDS011;10160;50.926;4.374;2022-11-20T04:14:29;49.57;;;23.77;;
19998;SDS011;10160;50.926;4.374;2022-11-20T04:16:54;49.67;;;22.60;;
19998;SDS011;10160;50.926;4.374;2022-11-20T04:19:20;47.03;;;22.33;;
19998;SDS011;10160;50.926;4.374;2022-11-20T04:21:46;43.60;;;22.60;;
19998;SDS011;10160;50.926;4.374;2022-11-20T04:24:11;48.70;;;22.73;;
19998;SDS011;10160;50.926;4.374;2022-11-20T04:26:37;48.13;;;23.43;;
19998;SDS011;10160;50.926;4.374;2022-11-20T04:29:03;49.30;;;23.47;;
19998;SDS011;10160;50.926;4.374;2022-11-20T04:31:29;44.50;;;20.73;;
19998;SDS011;10160;50.926;4.374;2022-11-20T04:34:04;46.20;;;22.33;;
19998;SDS011;10160;50.926;4.374;2022-11-20T04:36:31;46.90;;;22.77;;
19998;SDS011;10160;50.926;4.374;2022-11-20T04:38:58;47.67;;;22.43;;
19998;SDS011;10160;50.926;4.374;2022-11-20T04:41:26;47.40;;;21.90;;
19998;SDS011;10160;50.926;4.374;2022-11-20T04:43:55;47.10;;;22.87;;
19998;SDS011;10160;50.926;4.374;2022-11-20T04:46:24;45.53;;;21.53;;
19998;SDS011;10160;50.926;4.374;2022-11-20T04:48:51;48.00;;;22.13;;
19998;SDS011;10160;50.926;4.374;2022-11-20T04:51:16;45.93;;;23.13;;
19998;SDS011;10160;50.926;4.374;2022-11-20T04:53:42;48.03;;;22.23;;
19998;SDS011;10160;50.926;4.374;2022-11-20T04:56:08;50.00;;;24.27;;
19998;SDS011;10160;50.926;4.374;2022-11-20T04:58:35;49.97;;;23.50;;
19998;SDS011;10160;50.926;4.374;2022-11-20T05:01:34;50.93;;;23.30;;
19998;SDS011;10160;50.926;4.374;2022-11-20T05:03:53;47.87;;;22.73;;
19998;SDS011;10160;50.926;4.374;2022-11-20T05:06:20;51.47;;;23.60;;
19998;SDS011;10160;50.926;4.374;2022-11-20T05:08:46;47.00;;;23.20;;
19998;SDS011;10160;50.926;4.374;2022-11-20T05:11:13;49.97;;;22.67;;
19998;SDS011;10160;50.926;4.374;2022-11-20T05:13:40;48.97;;;22.97;;
19998;SDS011;10160;50.926;4.374;2022-11-20T05:16:10;49.87;;;22.33;;
19998;SDS011;10160;50.926;4.374;2022-11-20T05:18:43;50.00;;;22.00;;
19998;SDS011;10160;50.926;4.374;2022-11-20T05:21:09;48.17;;;23.03;;
19998;SDS011;10160;50.926;4.374;2022-11-20T05:23:36;49.47;;;23.07;;
19998;SDS011;10160;50.926;4.374;2022-11-20T05:26:02;49.23;;;22.67;;
19998;SDS011;10160;50.926;4.374;2022-11-20T05:28:30;50.47;;;22.97;;
19998;SDS011;10160;50.926;4.374;2022-11-20T05:30:56;52.10;;;23.50;;
19998;SDS011;10160;50.926;4.374;2022-11-20T05:33:28;49.67;;;22.40;;
19998;SDS011;10160;50.926;4.374;2022-11-20T05:35:57;50.80;;;22.87;;
19998;SDS011;10160;50.926;4.374;2022-11-20T05:38:23;52.67;;;23.87;;
19998;SDS011;10160;50.926;4.374;2022-11-20T05:40:49;50.37;;;22.93;;
19998;SDS011;10160;50.926;4.374;2022-11-20T05:43:14;53.43;;;24.20;;
19998;SDS011;10160;50.926;4.374;2022-11-20T05:45:40;55.50;;;23.23;;
19998;SDS011;10160;50.926;4.374;2022-11-20T05:48:06;53.57;;;23.00;;
19998;SDS011;10160;50.926;4.374;2022-11-20T05:50:31;52.60;;;23.80;;
19998;SDS011;10160;50.926;4.374;2022-11-20T05:52:58;52.67;;;23.57;;
19998;SDS011;10160;50.926;4.374;2022-11-20T05:55:24;53.83;;;24.90;;
19998;SDS011;10160;50.926;4.374;2022-11-20T05:57:51;51.27;;;23.77;;
19998;SDS011;10160;50.926;4.374;2022-11-20T06:00:18;56.37;;;24.40;;
19998;SDS011;10160;50.926;4.374;2022-11-20T06:02:44;61.13;;;25.63;;
19998;SDS011;10160;50.926;4.374;2022-11-20T06:05:09;56.50;;;25.83;;
19998;SDS011;10160;50.926;4.374;2022-11-20T06:07:35;59.40;;;24.57;;
19998;SDS011;10160;50.926;4.374;2022-11-20T06:10:01;59.33;;;25.50;;
19998;SDS011;10160;50.926;4.374;2022-11-20T06:12:26;62.73;;;25.53;;
19998;SDS011;10160;50.926;4.374;2022-11-20T06:14:52;62.63;;;24.73;;
19998;SDS011;10160;50.926;4.374;2022-11-20T06:17:17;64.20;;;27.30;;
19998;SDS011;10160;50.926;4.374;2022-11-20T06:19:43;62.00;;;25.20;;
19998;SDS011;10160;50.926;4.374;2022-11-20T06:22:08;62.80;;;25.47;;
19998;SDS011;10160;50.926;4.374;2022-11-20T06:24:34;71.73;;;27.30;;
19998;SDS011;10160;50.926;4.374;2022-11-20T06:27:00;63.17;;;25.47;;
19998;SDS011;10160;50.926;4.374;2022-11-20T06:29:25;70.43;;;27.20;;
19998;SDS011;10160;50.926;4.374;2022-11-20T06:31:51;68.80;;;27.03;;
19998;SDS011;10160;50.926;4.374;2022-11-20T06:34:16;72.87;;;26.87;;
19998;SDS011;10160;50.926;4.374;2022-11-20T06:36:42;75.53;;;27.50;;
19998;SDS011;10160;50.926;4.374;2022-11-20T06:39:08;69.03;;;28.40;;
19998;SDS011;10160;50.926;4.374;2022-11-20T06:41:33;71.87;;;27.47;;
19998;SDS011;10160;50.926;4.374;2022-11-20T06:43:59;73.63;;;27.20;;
19998;SDS011;10160;50.926;4.374;2022-11-20T06:46:24;79.87;;;28.33;;
19998;SDS011;10160;50.926;4.374;2022-11-20T06:48:50;67.33;;;27.37;;
19998;SDS011;10160;50.926;4.374;2022-11-20T06:51:16;71.40;;;26.10;;
19998;SDS011;10160;50.926;4.374;2022-11-20T06:53:42;78.77;;;26.80;;
19998;SDS011;10160;50.926;4.374;2022-11-20T06:56:07;67.57;;;26.50;;
19998;SDS011;10160;50.926;4.374;2022-11-20T06:58:34;68.53;;;27.53;;
19998;SDS011;10160;50.926;4.374;2022-11-20T07:01:01;66.77;;;26.47;;
19998;SDS011;10160;50.926;4.374;2022-11-20T07:03:28;77.30;;;27.83;;
19998;SDS011;10160;50.926;4.374;2022-11-20T07:05:57;73.83;;;27.80;;
19998;SDS011;10160;50.926;4.374;2022-11-20T07:08:24;76.80;;;28.27;;
19998;SDS011;10160;50.926;4.374;2022-11-20T07:10:50;76.87;;;27.53;;
19998;SDS011;10160;50.926;4.374;2022-11-20T07:13:16;75.30;;;27.87;;
19998;SDS011;10160;50.926;4.374;2022-11-20T07:15:42;81.57;;;29.50;;
19998;SDS011;10160;50.926;4.374;2022-11-20T07:18:07;79.40;;;27.93;;
19998;SDS011;10160;50.926;4.374;2022-11-20T07:20:33;67.20;;;26.40;;
19998;SDS011;10160;50.926;4.374;2022-11-20T07:22:58;72.17;;;27.80;;
19998;SDS011;10160;50.926;4.374;2022-11-20T07:25:24;73.00;;;27.20;;
19998;SDS011;10160;50.926;4.374;2022-11-20T07:27:51;69.57;;;26.80;;
19998;SDS011;10160;50.926;4.374;2022-11-20T07:30:17;76.07;;;28.23;;
19998;SDS011;10160;50.926;4.374;2022-11-20T07:32:46;80.60;;;29.07;;
19998;SDS011;10160;50.926;4.374;2022-11-20T07:35:12;77.03;;;28.47;;
19998;SDS011;10160;50.926;4.374;2022-11-20T07:37:38;75.10;;;27.03;;
19998;SDS011;10160;50.926;4.374;2022-11-20T07:40:03;75.27;;;28.33;;
19998;SDS011;10160;50.926;4.374;2022-11-20T07:42:29;74.87;;;28.23;;
19998;SDS011;10160;50.926;4.374;2022-11-20T07:44:55;73.60;;;27.40;;
19998;SDS011;10160;50.926;4.374;2022-11-20T07:47:20;69.37;;;27.37;;
19998;SDS011;10160;50.926;4.374;2022-11-20T07:49:46;73.43;;;27.63;;
19998;SDS011;10160;50.926;4.374;2022-11-20T07:52:12;68.03;;;26.17;;
19998;SDS011;10160;50.926;4.374;2022-11-20T07:54:37;69.80;;;25.93;;
19998;SDS011;10160;50.926;4.374;2022-11-20T07:57:03;71.80;;;27.27;;
19998;SDS011;10160;50.926;4.374;2022-11-20T07:59:28;80.20;;;28.70;;
19998;SDS011;10160;50.926;4.374;2022-11-20T08:01:54;74.50;;;27.43;;
19998;SDS011;10160;50.926;4.374;2022-11-20T08:04:20;71.27;;;26.33;;
19998;SDS011;10160;50.926;4.374;2022-11-20T08:06:46;72.67;;;26.50;;
19998;SDS011;10160;50.926;4.374;2022-11-20T08:09:12;67.33;;;26.77;;
19998;SDS011;10160;50.926;4.374;2022-11-20T08:11:37;69.33;;;27.37;;
19998;SDS011;10160;50.926;4.374;2022-11-20T08:14:21;68.30;;;25.90;;
19998;SDS011;10160;50.926;4.374;2022-11-20T08:16:47;64.97;;;26.53;;
19998;SDS011;10160;50.926;4.374;2022-11-20T08:19:14;67.03;;;27.20;;
19998;SDS011;10160;50.926;4.374;2022-11-20T08:21:42;68.43;;;27.43;;
19998;SDS011;10160;50.926;4.374;2022-11-20T08:24:08;73.23;;;27.63;;
19998;SDS011;10160;50.926;4.374;2022-11-20T08:26:34;66.57;;;26.93;;
19998;SDS011;10160;50.926;4.374;2022-11-20T08:29:01;75.80;;;27.67;;
19998;SDS011;10160;50.926;4.374;2022-11-20T08:31:28;68.27;;;26.20;;
19998;SDS011;10160;50.926;4.374;2022-11-20T08:33:54;67.93;;;26.50;;
19998;SDS011;10160;50.926;4.374;2022-11-20T08:36:20;75.20;;;27.53;;
19998;SDS011;10160;50.926;4.374;2022-11-20T08:38:48;80.87;;;28.23;;
19998;SDS011;10160;50.926;4.374;2022-11-20T08:41:14;73.57;;;27.40;;
19998;SDS011;10160;50.926;4.374;2022-11-20T08:43:51;73.20;;;26.53;;
19998;SDS011;10160;50.926;4.374;2022-11-20T08:46:25;72.90;;;27.27;;
19998;SDS011;10160;50.926;4.374;2022-11-20T08:48:52;66.20;;;24.30;;
19998;SDS011;10160;50.926;4.374;2022-11-20T08:51:18;67.30;;;25.90;;
19998;SDS011;10160;50.926;4.374;2022-11-20T08:53:45;61.57;;;23.93;;
19998;SDS011;10160;50.926;4.374;2022-11-20T08:56:11;60.77;;;23.33;;
19998;SDS011;10160;50.926;4.374;2022-11-20T08:58:37;63.40;;;23.67;;
19998;SDS011;10160;50.926;4.374;2022-11-20T09:01:04;59.80;;;21.33;;
19998;SDS011;10160;50.926;4.374;2022-11-20T09:03:29;66.03;;;24.77;;
19998;SDS011;10160;50.926;4.374;2022-11-20T09:05:59;64.87;;;22.97;;
19998;SDS011;10160;50.926;4.374;2022-11-20T09:08:26;68.00;;;23.00;;
19998;SDS011;10160;50.926;4.374;2022-11-20T09:10:52;64.67;;;23.33;;
19998;SDS011;10160;50.926;4.374;2022-11-20T09:13:20;59.13;;;22.07;;
19998;SDS011;10160;50.926;4.374;2022-11-20T09:15:46;63.07;;;22.77;;
19998;SDS011;10160;50.926;4.374;2022-11-20T09:18:12;67.13;;;23.70;;
19998;SDS011;10160;50.926;4.374;2022-11-20T09:20:38;74.40;;;25.43;;
19998;SDS011;10160;50.926;4.374;2022-11-20T09:23:03;63.77;;;24.70;;
19998;SDS011;10160;50.926;4.374;2022-11-20T09:25:29;68.03;;;23.47;;
19998;SDS011;10160;50.926;4.374;2022-11-20T09:27:58;62.87;;;25.07;;
19998;SDS011;10160;50.926;4.374;2022-11-20T09:30:24;65.17;;;24.57;;
19998;SDS011;10160;50.926;4.374;2022-11-20T09:32:50;59.97;;;24.90;;
19998;SDS011;10160;50.926;4.374;2022-11-20T09:35:16;66.27;;;24.80;;
19998;SDS011;10160;50.926;4.374;2022-11-20T09:37:42;69.07;;;24.80;;
19998;SDS011;10160;50.926;4.374;2022-11-20T09:40:19;62.47;;;24.03;;
19998;SDS011;10160;50.926;4.374;2022-11-20T09:51:08;58.07;;;21.30;;
19998;SDS011;10160;50.926;4.374;2022-11-20T09:56:38;51.10;;;21.47;;
19998;SDS011;10160;50.926;4.374;2022-11-20T09:59:08;53.43;;;21.93;;
19998;SDS011;10160;50.926;4.374;2022-11-20T10:01:48;51.70;;;21.47;;
19998;SDS011;10160;50.926;4.374;2022-11-20T10:04:17;45.70;;;19.87;;
19998;SDS011;10160;50.926;4.374;2022-11-20T10:06:51;55.43;;;21.40;;
19998;SDS011;10160;50.926;4.374;2022-11-20T10:09:37;52.57;;;21.03;;
19998;SDS011;10160;50.926;4.374;2022-11-20T10:15:13;44.17;;;19.67;;
19998;SDS011;10160;50.926;4.374;2022-11-20T10:18:16;53.80;;;19.93;;
19998;SDS011;10160;50.926;4.374;2022-11-20T10:26:43;50.17;;;19.30;;
19998;SDS011;10160;50.926;4.374;2022-11-20T10:29:33;48.07;;;19.60;;
19998;SDS011;10160;50.926;4.374;2022-11-20T10:32:02;39.73;;;16.70;;
19998;SDS011;10160;50.926;4.374;2022-11-20T10:37:23;33.50;;;14.77;;
19998;SDS011;10160;50.926;4.374;2022-11-20T10:39:54;31.10;;;13.37;;
19998;SDS011;10160;50.926;4.374;2022-11-20T10:42:39;30.27;;;12.80;;
19998;SDS011;10160;50.926;4.374;2022-11-20T10:45:19;26.93;;;11.80;;
19998;SDS011;10160;50.926;4.374;2022-11-20T10:47:50;22.47;;;10.20;;
19998;SDS011;10160;50.926;4.374;2022-11-20T10:50:19;24.60;;;11.37;;
19998;SDS011;10160;50.926;4.374;2022-11-20T10:53:05;23.83;;;10.20;;
19998;SDS011;10160;50.926;4.374;2022-11-20T10:55:53;28.47;;;10.97;;
19998;SDS011;10160;50.926;4.374;2022-11-20T10:58:29;20.07;;;9.77;;
19998;SDS011;10160;50.926;4.374;2022-11-20T11:01:20;23.37;;;8.47;;
19998;SDS011;10160;50.926;4.374;2022-11-20T11:03:51;21.60;;;9.10;;
19998;SDS011;10160;50.926;4.374;2022-11-20T11:06:32;17.23;;;8.83;;
19998;SDS011;10160;50.926;4.374;2022-11-20T11:09:29;16.07;;;6.60;;
19998;SDS011;10160;50.926;4.374;2022-11-20T11:11:55;15.53;;;6.90;;
19998;SDS011;10160;50.926;4.374;2022-11-20T11:14:21;14.77;;;5.90;;
19998;SDS011;10160;50.926;4.374;2022-11-20T11:16:53;20.37;;;6.37;;
19998;SDS011;10160;50.926;4.374;2022-11-20T11:19:20;16.50;;;6.57;;
19998;SDS011;10160;50.926;4.374;2022-11-20T11:21:55;13.20;;;5.93;;
19998;SDS011;10160;50.926;4.374;2022-11-20T11:24:26;18.43;;;6.27;;
19998;SDS011;10160;50.926;4.374;2022-11-20T11:29:22;14.30;;;5.40;;
19998;SDS011;10160;50.926;4.374;2022-11-20T11:31:51;18.27;;;5.77;;
19998;SDS011;10160;50.926;4.374;2022-11-20T11:34:29;14.67;;;5.40;;
19998;SDS011;10160;50.926;4.374;2022-11-20T11:37:00;11.37;;;5.17;;
19998;SDS011;10160;50.926;4.374;2022-11-20T11:39:30;14.00;;;5.43;;
19998;SDS011;10160;50.926;4.374;2022-11-20T11:41:58;12.43;;;4.87;;
19998;SDS011;10160;50.926;4.374;2022-11-20T11:44:28;16.73;;;5.43;;
19998;SDS011;10160;50.926;4.374;2022-11-20T11:47:21;21.67;;;6.83;;
19998;SDS011;10160;50.926;4.374;2022-11-20T11:55:43;16.73;;;5.23;;
19998;SDS011;10160;50.926;4.374;2022-11-20T11:58:40;16.63;;;5.20;;
19998;SDS011;10160;50.926;4.374;2022-11-20T12:04:04;9.87;;;3.90;;
19998;SDS011;10160;50.926;4.374;2022-11-20T12:07:01;10.67;;;3.57;;
19998;SDS011;10160;50.926;4.374;2022-11-20T12:09:37;12.40;;;4.03;;
19998;SDS011;10160;50.926;4.374;2022-11-20T12:12:13;13.27;;;4.53;;
19998;SDS011;10160;50.926;4.374;2022-11-20T12:14:47;11.73;;;4.57;;
19998;SDS011;10160;50.926;4.374;2022-11-20T12:17:15;10.87;;;4.77;;
19998;SDS011;10160;50.926;4.374;2022-11-20T12:19:41;9.20;;;4.00;;
19998;SDS011;10160;50.926;4.374;2022-11-20T12:24:47;15.97;;;4.97;;
19998;SDS011;10160;50.926;4.374;2022-11-20T12:30:10;9.47;;;4.20;;
19998;SDS011;10160;50.926;4.374;2022-11-20T12:40:48;14.80;;;4.77;;
19998;SDS011;10160;50.926;4.374;2022-11-20T12:43:34;11.17;;;4.37;;
19998;SDS011;10160;50.926;4.374;2022-11-20T12:51:57;12.47;;;5.13;;
19998;SDS011;10160;50.926;4.374;2022-11-20T13:00:15;9.90;;;4.33;;
19998;SDS011;10160;50.926;4.374;2022-11-20T13:06:01;13.97;;;4.50;;
19998;SDS011;10160;50.926;4.374;2022-11-20T13:08:35;13.47;;;4.53;;
19998;SDS011;10160;50.926;4.374;2022-11-20T13:19:14;18.60;;;6.47;;
19998;SDS011;10160;50.926;4.374;2022-11-20T13:21:43;15.17;;;5.17;;
19998;SDS011;10160;50.926;4.374;2022-11-20T13:29:33;10.63;;;3.93;;
19998;SDS011;10160;50.926;4.374;2022-11-20T13:32:04;9.30;;;4.30;;
19998;SDS011;10160;50.926;4.374;2022-11-20T13:34:36;11.30;;;4.83;;
19998;SDS011;10160;50.926;4.374;2022-11-20T13:37:02;12.73;;;4.67;;
19998;SDS011;10160;50.926;4.374;2022-11-20T13:39:34;10.77;;;4.83;;
19998;SDS011;10160;50.926;4.374;2022-11-20T13:44:55;12.37;;;5.47;;
19998;SDS011;10160;50.926;4.374;2022-11-20T13:47:27;8.40;;;3.60;;
19998;SDS011;10160;50.926;4.374;2022-11-20T13:49:54;6.87;;;3.67;;
19998;SDS011;10160;50.926;4.374;2022-11-20T13:55:32;6.97;;;4.10;;
19998;SDS011;10160;50.926;4.374;2022-11-20T13:58:06;12.03;;;4.27;;
19998;SDS011;10160;50.926;4.374;2022-11-20T14:00:50;10.00;;;4.07;;
19998;SDS011;10160;50.926;4.374;2022-11-20T14:03:22;6.67;;;4.03;;
19998;SDS011;10160;50.926;4.374;2022-11-20T14:05:57;8.47;;;3.90;;
19998;SDS011;10160;50.926;4.374;2022-11-20T14:08:30;9.20;;;4.17;;
19998;SDS011;10160;50.926;4.374;2022-11-20T14:11:06;8.17;;;4.20;;
19998;SDS011;10160;50.926;4.374;2022-11-20T14:13:55;6.33;;;3.77;;
19998;SDS011;10160;50.926;4.374;2022-11-20T14:16:24;9.33;;;4.10;;
19998;SDS011;10160;50.926;4.374;2022-11-20T14:18:51;8.80;;;3.80;;
19998;SDS011;10160;50.926;4.374;2022-11-20T14:21:24;10.73;;;4.43;;
19998;SDS011;10160;50.926;4.374;2022-11-20T14:24:06;10.17;;;4.47;;
19998;SDS011;10160;50.926;4.374;2022-11-20T14:26:35;7.50;;;3.93;;
19998;SDS011;10160;50.926;4.374;2022-11-20T14:29:11;6.67;;;4.30;;
19998;SDS011;10160;50.926;4.374;2022-11-20T14:31:45;9.53;;;4.77;;
19998;SDS011;10160;50.926;4.374;2022-11-20T14:34:17;8.93;;;4.90;;
19998;SDS011;10160;50.926;4.374;2022-11-20T14:36:46;6.67;;;4.10;;
19998;SDS011;10160;50.926;4.374;2022-11-20T14:39:22;6.90;;;2.97;;
19998;SDS011;10160;50.926;4.374;2022-11-20T14:41:55;8.13;;;3.80;;
19998;SDS011;10160;50.926;4.374;2022-11-20T14:44:22;7.67;;;3.50;;
19998;SDS011;10160;50.926;4.374;2022-11-20T14:46:51;8.20;;;4.10;;
19998;SDS011;10160;50.926;4.374;2022-11-20T14:49:19;8.10;;;3.67;;
19998;SDS011;10160;50.926;4.374;2022-11-20T14:51:45;7.07;;;3.33;;
19998;SDS011;10160;50.926;4.374;2022-11-20T14:56:39;11.47;;;4.20;;
19998;SDS011;10160;50.926;4.374;2022-11-20T14:59:05;9.03;;;4.30;;
19998;SDS011;10160;50.926;4.374;2022-11-20T15:01:32;7.30;;;3.50;;
19998;SDS011;10160;50.926;4.374;2022-11-20T15:04:05;9.00;;;4.43;;
19998;SDS011;10160;50.926;4.374;2022-11-20T15:06:34;7.60;;;4.13;;
19998;SDS011;10160;50.926;4.374;2022-11-20T15:09:01;6.87;;;4.17;;
19998;SDS011;10160;50.926;4.374;2022-11-20T15:11:38;9.13;;;4.30;;
19998;SDS011;10160;50.926;4.374;2022-11-20T15:14:08;6.97;;;4.50;;
19998;SDS011;10160;50.926;4.374;2022-11-20T15:16:34;8.67;;;4.80;;
19998;SDS011;10160;50.926;4.374;2022-11-20T15:19:00;7.53;;;5.00;;
19998;SDS011;10160;50.926;4.374;2022-11-20T15:21:28;8.67;;;4.60;;
19998;SDS011;10160;50.926;4.374;2022-11-20T15:23:54;9.47;;;5.17;;
19998;SDS011;10160;50.926;4.374;2022-11-20T15:26:26;12.60;;;4.97;;
19998;SDS011;10160;50.926;4.374;2022-11-20T15:28:52;10.53;;;5.23;;
19998;SDS011;10160;50.926;4.374;2022-11-20T15:31:21;10.27;;;5.00;;
19998;SDS011;10160;50.926;4.374;2022-11-20T15:33:48;10.97;;;5.57;;
19998;SDS011;10160;50.926;4.374;2022-11-20T15:36:14;10.17;;;5.57;;
19998;SDS011;10160;50.926;4.374;2022-11-20T15:38:40;10.17;;;6.00;;
19998;SDS011;10160;50.926;4.374;2022-11-20T15:41:05;12.70;;;5.37;;
19998;SDS011;10160;50.926;4.374;2022-11-20T15:43:31;10.97;;;5.57;;
19998;SDS011;10160;50.926;4.374;2022-11-20T15:45:59;10.40;;;5.80;;
19998;SDS011;10160;50.926;4.374;2022-11-20T15:48:28;11.70;;;5.33;;
19998;SDS011;10160;50.926;4.374;2022-11-20T15:53:40;10.07;;;5.10;;
19998;SDS011;10160;50.926;4.374;2022-11-20T15:56:13;16.30;;;5.37;;
19998;SDS011;10160;50.926;4.374;2022-11-20T15:58:39;9.47;;;5.43;;
19998;SDS011;10160;50.926;4.374;2022-11-20T16:01:09;12.13;;;4.87;;
19998;SDS011;10160;50.926;4.374;2022-11-20T16:03:39;17.70;;;5.13;;
19998;SDS011;10160;50.926;4.374;2022-11-20T16:06:05;15.83;;;5.37;;
19998;SDS011;10160;50.926;4.374;2022-11-20T16:08:31;18.47;;;5.10;;